createdAt,value
2022-07-25T00:01:06.888Z,3.33
2022-07-25T00:03:34.782Z,3.30
2022-07-25T00:06:02.479Z,3.20
2022-07-25T00:08:30.208Z,3.15
2022-07-25T00:10:57.893Z,3.20
2022-07-25T00:13:25.631Z,3.20
2022-07-25T00:15:54.716Z,3.03
2022-07-25T00:18:22.464Z,3.10
2022-07-25T00:20:50.136Z,2.88
2022-07-25T00:23:17.821Z,3.08
2022-07-25T00:25:45.504Z,3.22
2022-07-25T00:28:13.229Z,3.13
2022-07-25T00:30:40.935Z,2.70
2022-07-25T00:33:09.927Z,2.83
2022-07-25T00:35:37.613Z,2.70
2022-07-25T00:38:05.298Z,3.13
2022-07-25T00:40:32.990Z,3.10
2022-07-25T00:43:00.671Z,3.00
2022-07-25T00:45:28.509Z,3.00
2022-07-25T00:47:56.189Z,2.97
2022-07-25T00:50:25.454Z,3.25
2022-07-25T00:52:53.453Z,3.40
2022-07-25T00:55:21.135Z,3.10
2022-07-25T00:57:48.816Z,3.20
2022-07-25T01:00:17.705Z,2.88
2022-07-25T01:02:46.925Z,3.35
2022-07-25T01:05:14.700Z,2.83
2022-07-25T01:07:43.751Z,3.40
2022-07-25T01:10:11.462Z,2.70
2022-07-25T01:12:46.278Z,2.92
2022-07-25T01:15:13.981Z,2.70
2022-07-25T01:17:41.668Z,2.83
2022-07-25T01:20:14.913Z,3.03
2022-07-25T01:22:42.612Z,3.10
2022-07-25T01:25:10.560Z,3.05
2022-07-25T01:27:38.306Z,2.85
2022-07-25T01:30:07.036Z,2.90
2022-07-25T01:32:34.765Z,3.05
2022-07-25T01:35:02.470Z,3.00
2022-07-25T01:37:31.479Z,2.83
2022-07-25T01:39:59.164Z,2.50
2022-07-25T01:42:26.848Z,2.92
2022-07-25T01:44:54.538Z,3.10
2022-07-25T01:47:22.220Z,2.80
2022-07-25T01:49:49.931Z,2.90
2022-07-25T01:52:17.608Z,3.10
2022-07-25T01:54:46.629Z,3.00
2022-07-25T01:57:15.609Z,2.70
2022-07-25T01:59:44.514Z,3.10
2022-07-25T02:02:12.220Z,2.90
2022-07-25T02:04:39.990Z,2.70
2022-07-25T02:07:07.704Z,2.53
2022-07-25T02:09:35.457Z,2.97
2022-07-25T02:12:04.694Z,3.00
2022-07-25T02:14:32.437Z,2.85
2022-07-25T02:17:00.232Z,2.80
2022-07-25T02:19:27.950Z,2.80
2022-07-25T02:21:55.633Z,2.63
2022-07-25T02:24:23.317Z,2.92
2022-07-25T02:26:51.013Z,3.10
2022-07-25T02:29:22.214Z,2.67
2022-07-25T02:31:51.823Z,2.90
2022-07-25T02:34:19.552Z,2.75
2022-07-25T02:36:47.295Z,3.05
2022-07-25T02:39:15.099Z,2.72
2022-07-25T02:41:43.292Z,2.92
2022-07-25T02:44:10.969Z,2.85
2022-07-25T02:46:39.988Z,2.90
2022-07-25T02:49:07.713Z,3.08
2022-07-25T02:51:35.434Z,2.60
2022-07-25T02:54:03.111Z,2.97
2022-07-25T02:56:33.066Z,2.78
2022-07-25T02:59:00.740Z,2.38
2022-07-25T03:01:28.507Z,2.75
2022-07-25T03:03:57.574Z,2.47
2022-07-25T03:06:25.316Z,2.50
2022-07-25T03:08:53.000Z,2.70
2022-07-25T03:11:21.936Z,2.47
2022-07-25T03:13:49.612Z,2.55
2022-07-25T03:16:17.337Z,3.00
2022-07-25T03:18:45.043Z,2.88
2022-07-25T03:21:14.049Z,3.00
2022-07-25T03:23:41.745Z,2.65
2022-07-25T03:26:09.440Z,2.80
2022-07-25T03:28:37.185Z,2.72
2022-07-25T03:31:05.044Z,2.75
2022-07-25T03:33:32.707Z,2.80
2022-07-25T03:36:00.376Z,2.45
2022-07-25T03:38:30.921Z,2.50
2022-07-25T03:40:58.605Z,2.60
2022-07-25T03:43:26.374Z,2.50
2022-07-25T03:45:54.137Z,2.42
2022-07-25T03:48:21.866Z,2.85
2022-07-25T03:50:49.531Z,2.60
2022-07-25T03:53:17.212Z,2.50
2022-07-25T03:55:46.224Z,2.45
2022-07-25T03:58:13.904Z,2.72
2022-07-25T04:00:41.650Z,2.53
2022-07-25T04:03:09.368Z,2.60
2022-07-25T04:05:37.041Z,2.38
2022-07-25T04:08:05.101Z,2.47
2022-07-25T04:10:32.984Z,2.65
2022-07-25T04:13:01.986Z,2.60
2022-07-25T04:15:29.656Z,2.83
2022-07-25T04:17:58.692Z,2.45
2022-07-25T04:20:26.920Z,2.60
2022-07-25T04:22:54.592Z,2.67
2022-07-25T04:25:22.322Z,2.60
2022-07-25T04:27:50.005Z,2.50
2022-07-25T04:30:24.652Z,2.30
2022-07-25T04:32:52.761Z,2.67
2022-07-25T04:35:20.576Z,2.38
2022-07-25T04:37:48.279Z,2.35
2022-07-25T04:40:16.517Z,2.80
2022-07-25T04:42:44.219Z,2.47
2022-07-25T04:45:12.451Z,2.45
2022-07-25T04:47:41.474Z,2.65
2022-07-25T04:50:09.995Z,2.33
2022-07-25T04:52:37.683Z,2.45
2022-07-25T04:55:06.164Z,2.50
2022-07-25T04:57:33.849Z,2.53
2022-07-25T05:00:01.537Z,2.50
2022-07-25T05:02:29.254Z,2.38
2022-07-25T05:04:58.321Z,2.40
2022-07-25T05:07:26.017Z,2.60
2022-07-25T05:09:54.362Z,2.30
2022-07-25T05:12:22.076Z,2.25
2022-07-25T05:14:49.756Z,2.50
2022-07-25T05:17:17.437Z,2.53
2022-07-25T05:19:45.157Z,2.40
2022-07-25T05:22:14.139Z,2.25
2022-07-25T05:24:41.890Z,2.50
2022-07-25T05:27:09.612Z,2.50
2022-07-25T05:29:37.344Z,2.30
2022-07-25T05:32:05.628Z,2.30
2022-07-25T05:34:33.308Z,2.40
2022-07-25T05:37:01.261Z,2.28
2022-07-25T05:39:30.316Z,2.50
2022-07-25T05:41:58.004Z,2.17
2022-07-25T05:44:25.691Z,2.05
2022-07-25T05:46:53.438Z,2.30
2022-07-25T05:49:21.156Z,2.40
2022-07-25T05:51:48.846Z,2.40
2022-07-25T05:54:16.538Z,2.30
2022-07-25T05:56:45.557Z,2.22
2022-07-25T05:59:13.284Z,2.10
2022-07-25T06:01:41.018Z,2.13
2022-07-25T06:04:09.242Z,2.50
2022-07-25T06:06:37.161Z,2.30
2022-07-25T06:09:07.999Z,2.33
2022-07-25T06:11:35.898Z,2.47
2022-07-25T06:14:20.185Z,2.15
2022-07-25T06:16:50.650Z,2.40
2022-07-25T06:19:18.437Z,2.38
2022-07-25T06:21:46.139Z,2.20
2022-07-25T06:24:13.817Z,2.35
2022-07-25T06:26:41.493Z,2.35
2022-07-25T06:29:09.188Z,2.25
2022-07-25T06:31:38.305Z,2.35
2022-07-25T06:34:06.303Z,2.60
2022-07-25T06:36:34.236Z,2.28
2022-07-25T06:39:01.961Z,2.28
2022-07-25T06:41:29.640Z,2.10
2022-07-25T06:43:57.328Z,2.33
2022-07-25T06:46:26.582Z,2.30
2022-07-25T06:48:55.726Z,2.15
2022-07-25T06:51:24.035Z,2.30
2022-07-25T06:53:51.719Z,2.25
2022-07-25T06:56:19.425Z,1.85
2022-07-25T06:58:47.125Z,2.30
2022-07-25T07:01:14.884Z,2.47
2022-07-25T07:03:42.734Z,2.05
2022-07-25T07:06:11.781Z,2.30
2022-07-25T07:08:39.486Z,2.03
2022-07-25T07:11:07.699Z,2.20
2022-07-25T07:13:35.387Z,2.08
2022-07-25T07:16:03.567Z,2.17
2022-07-25T07:18:31.625Z,2.13
2022-07-25T07:20:59.313Z,2.10
2022-07-25T07:23:29.012Z,2.50
2022-07-25T07:25:56.917Z,2.17
2022-07-25T07:28:24.609Z,2.30
2022-07-25T07:31:15.828Z,2.20
2022-07-25T07:33:40.007Z,2.20
2022-07-25T07:36:08.189Z,2.25
2022-07-25T07:38:37.203Z,2.20
2022-07-25T07:41:04.926Z,2.40
2022-07-25T07:43:32.629Z,2.88
2022-07-25T07:46:01.160Z,2.50
2022-07-25T07:48:29.354Z,2.80
2022-07-25T07:50:57.239Z,4.03
2022-07-25T07:53:45.621Z,3.60
2022-07-25T07:56:13.761Z,3.10
2022-07-25T07:58:41.423Z,3.38
2022-07-25T08:01:09.101Z,2.80
2022-07-25T08:03:37.289Z,2.80
2022-07-25T08:06:05.205Z,3.08
2022-07-25T08:08:32.898Z,2.90
2022-07-25T08:11:00.610Z,2.85
2022-07-25T08:13:30.780Z,3.08
2022-07-25T08:15:59.398Z,2.72
2022-07-25T08:18:29.640Z,2.83
2022-07-25T08:20:57.355Z,2.72
2022-07-25T08:23:25.313Z,2.90
2022-07-25T08:25:53.048Z,3.03
2022-07-25T08:28:20.817Z,2.90
2022-07-25T08:30:49.849Z,2.40
2022-07-25T08:33:17.625Z,2.97
2022-07-25T08:35:49.589Z,2.78
2022-07-25T08:38:18.093Z,2.92
2022-07-25T08:40:45.785Z,2.60
2022-07-25T08:43:13.916Z,2.30
2022-07-25T08:45:44.777Z,2.67
2022-07-25T08:48:13.828Z,2.63
2022-07-25T08:50:41.643Z,2.65
2022-07-25T08:55:56.996Z,2.53
2022-07-25T08:58:24.741Z,2.60
2022-07-25T09:00:52.436Z,2.60
2022-07-25T09:03:21.462Z,2.90
2022-07-25T09:05:49.165Z,2.40
2022-07-25T09:08:18.413Z,2.38
2022-07-25T09:10:47.269Z,2.50
2022-07-25T09:13:15.398Z,2.50
2022-07-25T09:15:45.714Z,2.63
2022-07-25T09:18:15.969Z,2.58
2022-07-25T09:20:47.056Z,2.22
2022-07-25T09:23:15.603Z,2.50
2022-07-25T09:25:43.499Z,2.50
2022-07-25T09:28:13.055Z,2.45
2022-07-25T09:30:41.545Z,2.50
2022-07-25T09:33:09.301Z,2.40
2022-07-25T09:35:38.753Z,2.70
2022-07-25T09:38:11.946Z,2.47
2022-07-25T09:40:39.663Z,2.70
2022-07-25T09:43:07.612Z,2.53
2022-07-25T09:45:35.305Z,2.40
2022-07-25T09:48:03.829Z,2.30
2022-07-25T09:50:32.518Z,2.50
2022-07-25T09:53:02.273Z,2.40
2022-07-25T09:55:31.694Z,2.30
2022-07-25T09:57:59.401Z,2.35
2022-07-25T10:00:28.744Z,2.17
2022-07-25T10:03:11.225Z,2.45
2022-07-25T10:05:50.658Z,2.55
2022-07-25T10:08:18.366Z,2.35
2022-07-25T10:10:47.712Z,2.30
2022-07-25T10:13:17.710Z,2.22
2022-07-25T10:15:47.281Z,2.20
2022-07-25T10:18:15.517Z,2.33
2022-07-25T10:20:43.437Z,2.40
2022-07-25T10:23:21.262Z,2.50
2022-07-25T10:26:00.849Z,2.30
2022-07-25T10:28:37.152Z,2.28
2022-07-25T10:31:06.290Z,2.40
2022-07-25T10:33:41.731Z,2.50
2022-07-25T10:36:10.986Z,2.10
2022-07-25T10:38:40.173Z,2.22
2022-07-25T10:41:10.356Z,2.45
2022-07-25T10:43:38.317Z,2.30
2022-07-25T10:46:13.129Z,2.25
2022-07-25T10:48:40.975Z,2.20
2022-07-25T10:51:09.817Z,2.40
2022-07-25T10:53:39.280Z,2.38
2022-07-25T10:56:10.040Z,2.30
2022-07-25T10:58:45.165Z,2.50
2022-07-25T11:01:14.081Z,2.10
2022-07-25T11:03:44.936Z,2.40
2022-07-25T11:06:13.604Z,2.15
2022-07-25T11:08:41.474Z,2.30
2022-07-25T11:11:10.583Z,2.30
2022-07-25T11:13:39.157Z,2.20
2022-07-25T11:16:07.432Z,2.17
2022-07-25T11:18:36.428Z,2.45
2022-07-25T11:21:06.718Z,2.47
2022-07-25T11:23:34.710Z,2.10
2022-07-25T11:26:08.054Z,2.25
2022-07-25T11:28:44.261Z,2.33
2022-07-25T11:31:12.351Z,2.22
2022-07-25T11:33:40.281Z,2.10
2022-07-25T11:36:09.062Z,2.30
2022-07-25T11:38:36.770Z,2.38
2022-07-25T11:41:04.631Z,2.30
2022-07-25T11:43:32.319Z,2.15
2022-07-25T11:46:02.468Z,2.15
2022-07-25T11:48:35.514Z,2.30
2022-07-25T11:51:14.858Z,2.33
2022-07-25T11:53:46.782Z,2.30
2022-07-25T11:56:41.245Z,2.72
2022-07-25T11:59:07.366Z,2.25
2022-07-25T12:01:37.390Z,2.40
2022-07-25T12:04:12.455Z,2.13
2022-07-25T12:06:40.355Z,2.25
2022-07-25T12:09:18.882Z,2.33
2022-07-25T12:11:47.343Z,2.13
2022-07-25T12:14:15.146Z,2.35
2022-07-25T12:16:44.257Z,2.00
2022-07-25T12:19:19.675Z,2.45
2022-07-25T12:21:47.524Z,2.42
2022-07-25T12:24:15.228Z,2.50
2022-07-25T12:26:43.000Z,2.20
2022-07-25T12:29:11.015Z,2.35
2022-07-25T12:31:38.769Z,2.10
2022-07-25T12:34:07.836Z,2.38
2022-07-25T12:36:41.080Z,2.22
2022-07-25T12:39:09.109Z,2.47
2022-07-25T12:41:37.181Z,2.35
2022-07-25T12:44:05.005Z,2.15
2022-07-25T12:46:33.049Z,1.98
2022-07-25T12:49:00.888Z,2.38
2022-07-25T12:51:29.961Z,2.47
2022-07-25T12:53:57.664Z,2.28
2022-07-25T12:56:25.487Z,2.20
2022-07-25T12:58:53.579Z,2.22
2022-07-25T13:01:21.329Z,2.30
2022-07-25T13:03:49.069Z,2.30
2022-07-25T13:06:18.921Z,2.22
2022-07-25T13:08:47.990Z,2.33
2022-07-25T13:11:15.688Z,2.22
2022-07-25T13:13:43.407Z,2.20
2022-07-25T13:16:11.227Z,2.30
2022-07-25T13:18:38.971Z,2.10
2022-07-25T13:21:07.002Z,2.22
2022-07-25T13:23:34.832Z,2.25
2022-07-25T13:26:03.863Z,2.08
2022-07-25T13:28:31.590Z,2.00
2022-07-25T13:31:00.439Z,2.35
2022-07-25T13:33:28.142Z,2.10
2022-07-25T13:35:55.840Z,2.20
2022-07-25T13:38:23.522Z,2.13
2022-07-25T13:40:55.542Z,2.30
2022-07-25T13:43:27.525Z,2.47
2022-07-25T13:45:55.222Z,2.25
2022-07-25T13:48:31.010Z,2.30
2022-07-25T13:50:59.375Z,2.15
2022-07-25T13:53:30.252Z,2.00
2022-07-25T13:55:59.023Z,2.42
2022-07-25T13:58:28.255Z,2.13
2022-07-25T14:00:56.067Z,2.20
2022-07-25T14:03:23.831Z,1.95
2022-07-25T14:05:51.535Z,2.30
2022-07-25T14:08:19.483Z,2.40
2022-07-25T14:10:47.511Z,2.28
2022-07-25T14:13:15.226Z,2.10
2022-07-25T14:15:44.916Z,2.20
2022-07-25T14:18:12.660Z,2.40
2022-07-25T14:20:40.345Z,2.17
2022-07-25T14:23:08.081Z,2.00
2022-07-25T14:25:35.844Z,2.35
2022-07-25T14:28:03.570Z,2.20
2022-07-25T14:30:31.337Z,2.30
2022-07-25T14:33:00.423Z,2.30
2022-07-25T14:35:32.298Z,2.33
2022-07-25T14:38:00.646Z,2.30
2022-07-25T14:40:28.662Z,2.15
2022-07-25T14:42:56.422Z,2.10
2022-07-25T14:45:24.162Z,2.47
2022-07-25T14:47:51.927Z,2.03
2022-07-25T14:50:21.046Z,2.13
2022-07-25T14:52:48.712Z,2.08
2022-07-25T14:55:16.542Z,2.30
2022-07-25T14:57:45.142Z,2.20
2022-07-25T15:00:13.762Z,2.17
2022-07-25T15:02:41.475Z,2.20
2022-07-25T15:05:09.768Z,2.40
2022-07-25T15:07:39.263Z,2.55
2022-07-25T15:10:08.288Z,2.15
2022-07-25T15:12:36.178Z,2.17
2022-07-25T15:15:04.219Z,2.40
2022-07-25T15:17:31.914Z,2.55
2022-07-25T15:19:59.658Z,2.30
2022-07-25T15:22:27.391Z,2.28
2022-07-25T15:27:44.141Z,2.20
2022-07-25T15:30:12.577Z,2.20
2022-07-25T15:32:40.339Z,2.20
2022-07-25T15:35:09.374Z,2.20
2022-07-25T15:37:37.294Z,2.30
2022-07-25T15:40:07.604Z,2.30
2022-07-25T15:42:35.291Z,2.22
2022-07-25T15:45:31.949Z,2.47
2022-07-25T15:47:51.322Z,2.40
2022-07-25T15:50:19.055Z,2.08
2022-07-25T15:52:46.813Z,2.30
2022-07-25T15:55:15.869Z,1.98
2022-07-25T15:57:43.577Z,2.40
2022-07-25T16:00:12.241Z,2.25
2022-07-25T16:02:39.943Z,2.17
2022-07-25T16:05:08.073Z,2.08
2022-07-25T16:07:35.802Z,2.33
2022-07-25T16:10:03.563Z,2.13
2022-07-25T16:12:32.684Z,2.47
2022-07-25T16:15:00.399Z,2.00
2022-07-25T16:17:28.307Z,2.35
2022-07-25T16:19:56.000Z,2.30
2022-07-25T16:22:23.672Z,2.30
2022-07-25T16:24:51.399Z,2.40
2022-07-25T16:31:39.893Z,2.35
2022-07-25T16:34:07.587Z,2.05
2022-07-25T16:36:35.866Z,2.22
2022-07-25T16:39:03.743Z,2.13
2022-07-25T16:41:31.544Z,2.33
2022-07-25T16:43:59.228Z,2.40
2022-07-25T16:46:28.620Z,2.30
2022-07-25T16:48:57.817Z,2.00
2022-07-25T16:51:25.589Z,2.30
2022-07-25T16:53:53.775Z,2.10
2022-07-25T16:56:21.468Z,2.17
2022-07-25T16:58:49.192Z,2.17
2022-07-25T17:01:17.263Z,2.30
2022-07-25T17:03:45.037Z,2.10
2022-07-25T17:06:14.829Z,2.30
2022-07-25T17:08:43.151Z,2.40
2022-07-25T17:11:11.033Z,2.20
2022-07-25T17:13:38.752Z,2.00
2022-07-25T17:16:07.316Z,2.10
2022-07-25T17:18:35.044Z,2.20
2022-07-25T17:21:02.729Z,2.30
2022-07-25T17:23:32.209Z,2.20
2022-07-25T17:25:59.925Z,2.17
2022-07-25T17:28:27.627Z,2.00
2022-07-25T17:30:55.390Z,1.83
2022-07-25T17:33:23.104Z,1.85
2022-07-25T17:35:52.131Z,2.08
2022-07-25T17:38:25.428Z,2.30
2022-07-25T17:40:54.993Z,2.00
2022-07-25T17:43:22.669Z,2.40
2022-07-25T17:45:50.453Z,2.15
2022-07-25T17:48:18.189Z,2.08
2022-07-25T17:50:46.194Z,2.00
2022-07-25T17:53:16.661Z,2.05
2022-07-25T17:55:44.781Z,2.00
2022-07-25T17:58:13.938Z,2.15
2022-07-25T18:00:41.623Z,2.00
2022-07-25T18:03:09.354Z,1.92
2022-07-25T18:05:37.145Z,2.15
2022-07-25T18:08:05.472Z,1.60
2022-07-25T18:10:33.193Z,2.13
2022-07-25T18:13:01.926Z,2.10
2022-07-25T18:15:31.008Z,2.00
2022-07-25T18:17:58.714Z,2.00
2022-07-25T18:20:27.967Z,2.00
2022-07-25T18:22:55.661Z,1.95
2022-07-25T18:25:23.392Z,1.75
2022-07-25T18:27:51.115Z,1.98
2022-07-25T18:30:18.794Z,2.10
2022-07-25T18:32:48.123Z,1.98
2022-07-25T18:35:15.806Z,1.98
2022-07-25T18:37:43.596Z,2.20
2022-07-25T18:40:11.993Z,2.10
2022-07-25T18:42:40.178Z,2.05
2022-07-25T18:45:08.972Z,2.10
2022-07-25T18:47:37.548Z,2.10
2022-07-25T18:50:07.825Z,1.80
2022-07-25T18:52:36.139Z,1.98
2022-07-25T18:55:04.356Z,2.10
2022-07-25T18:57:32.097Z,2.10
2022-07-25T19:00:03.081Z,1.98
2022-07-25T19:02:31.472Z,2.15
2022-07-25T19:04:59.580Z,2.08
2022-07-25T19:07:29.741Z,2.20
2022-07-25T19:09:57.509Z,1.92
2022-07-25T19:12:27.130Z,2.00
2022-07-25T19:14:54.864Z,2.28
2022-07-25T19:17:23.771Z,2.00
2022-07-25T19:19:51.767Z,1.90
2022-07-25T19:22:19.487Z,2.00
2022-07-25T19:24:48.516Z,1.77
2022-07-25T19:27:16.221Z,2.05
2022-07-25T19:29:43.976Z,2.00
2022-07-25T19:32:11.675Z,1.98
2022-07-25T19:34:39.370Z,2.20
2022-07-25T19:37:07.039Z,1.90
2022-07-25T19:39:34.801Z,2.00
2022-07-25T19:42:07.329Z,1.80
2022-07-25T19:44:35.073Z,1.90
2022-07-25T19:47:02.765Z,2.03
2022-07-25T19:49:30.470Z,1.90
2022-07-25T19:51:58.167Z,1.90
2022-07-25T19:54:25.850Z,1.90
2022-07-25T19:56:54.539Z,2.00
2022-07-25T19:59:23.577Z,1.90
2022-07-25T20:01:51.393Z,1.77
2022-07-25T20:04:19.210Z,2.00
2022-07-25T20:06:46.909Z,1.90
2022-07-25T20:09:14.682Z,1.90
2022-07-25T20:11:42.453Z,2.10
2022-07-25T20:14:10.852Z,1.90
2022-07-25T20:16:40.411Z,2.00
2022-07-25T20:19:09.310Z,1.80
2022-07-25T20:21:37.318Z,1.60
2022-07-25T20:24:05.503Z,1.83
2022-07-25T20:26:33.339Z,2.00
2022-07-25T20:29:01.115Z,1.80
2022-07-25T20:31:29.008Z,1.80
2022-07-25T20:33:58.063Z,1.80
2022-07-25T20:36:25.839Z,2.13
2022-07-25T20:38:53.588Z,1.70
2022-07-25T20:41:21.310Z,1.83
2022-07-25T20:43:49.121Z,1.70
2022-07-25T20:46:16.930Z,1.67
2022-07-25T20:48:44.725Z,1.75
2022-07-25T20:51:13.878Z,1.77
2022-07-25T20:53:41.938Z,1.90
2022-07-25T20:56:09.792Z,1.77
2022-07-25T20:58:37.467Z,1.70
2022-07-25T21:01:05.935Z,1.70
2022-07-25T21:03:33.713Z,1.88
2022-07-25T21:06:01.481Z,2.05
2022-07-25T21:08:30.486Z,1.70
2022-07-25T21:10:58.709Z,1.90
2022-07-25T21:13:26.473Z,1.73
2022-07-25T21:15:58.629Z,1.80
2022-07-25T21:18:26.332Z,1.80
2022-07-25T21:20:54.224Z,1.73
2022-07-25T21:23:21.971Z,1.70
2022-07-25T21:25:50.961Z,1.90
2022-07-25T21:28:18.769Z,1.80
2022-07-25T21:30:46.438Z,1.83
2022-07-25T21:33:14.842Z,1.92
2022-07-25T21:35:49.196Z,1.70
2022-07-25T21:38:27.345Z,1.60
2022-07-25T21:40:56.834Z,1.80
2022-07-25T21:43:24.541Z,1.80
2022-07-25T21:45:52.318Z,1.60
2022-07-25T21:48:40.110Z,1.92
2022-07-25T21:51:09.665Z,1.50
2022-07-25T21:53:47.621Z,1.80
2022-07-25T21:56:16.730Z,1.80
2022-07-25T21:58:44.619Z,1.88
2022-07-25T22:01:12.371Z,1.80
2022-07-25T22:03:41.189Z,1.48
2022-07-25T22:06:10.092Z,1.90
2022-07-25T22:08:39.247Z,1.80
2022-07-25T22:11:16.325Z,1.50
2022-07-25T22:13:56.469Z,1.60
2022-07-25T22:16:24.753Z,1.80
2022-07-25T22:18:52.907Z,1.60
2022-07-25T22:21:20.973Z,1.77
2022-07-25T22:23:49.167Z,1.80
2022-07-25T22:26:17.347Z,1.40
2022-07-25T22:28:45.507Z,1.70
2022-07-25T22:31:15.074Z,1.70
2022-07-25T22:33:43.188Z,1.60
2022-07-25T22:36:11.955Z,1.67
2022-07-25T22:38:39.939Z,1.80
2022-07-25T22:41:10.784Z,1.60
2022-07-25T22:43:58.375Z,1.70
2022-07-25T22:46:28.766Z,1.52
2022-07-25T22:48:57.068Z,1.70
2022-07-25T22:51:25.190Z,1.42
2022-07-25T22:53:53.271Z,1.60
2022-07-25T22:56:21.837Z,1.70
2022-07-25T22:58:50.003Z,1.60
2022-07-25T23:01:18.403Z,1.70
2022-07-25T23:03:50.080Z,1.60
2022-07-25T23:06:18.846Z,1.70
2022-07-25T23:08:47.013Z,1.52
2022-07-25T23:11:14.899Z,1.52
2022-07-25T23:13:42.578Z,1.70
2022-07-25T23:16:10.682Z,1.73
2022-07-25T23:18:38.593Z,1.40
2022-07-25T23:21:07.623Z,1.40
2022-07-25T23:23:35.309Z,1.70
2022-07-25T23:26:03.032Z,1.70
2022-07-25T23:28:30.708Z,1.50
2022-07-25T23:30:58.375Z,1.50
2022-07-25T23:33:26.876Z,1.48
2022-07-25T23:35:54.711Z,1.40
2022-07-25T23:38:23.718Z,1.70
2022-07-25T23:40:53.944Z,1.50
2022-07-25T23:43:33.597Z,1.40
2022-07-25T23:46:09.448Z,1.42
2022-07-25T23:48:37.136Z,1.50
2022-07-25T23:51:04.956Z,1.60
2022-07-25T23:53:35.817Z,1.40
2022-07-25T23:56:03.693Z,1.40
2022-07-25T23:58:31.355Z,1.50
